createdAt,value
2022-09-24T00:00:47.694Z,99.99
2022-09-24T00:01:47.787Z,99.99
2022-09-24T00:02:47.521Z,99.99
2022-09-24T00:03:47.654Z,99.99
2022-09-24T00:04:47.663Z,99.99
2022-09-24T00:05:47.644Z,99.99
2022-09-24T00:06:47.350Z,99.99
2022-09-24T00:07:47.590Z,99.99
2022-09-24T00:08:47.580Z,99.99
2022-09-24T00:09:47.565Z,99.99
2022-09-24T00:10:47.298Z,99.99
2022-09-24T00:11:47.544Z,99.99
2022-09-24T00:12:47.525Z,99.99
2022-09-24T00:13:47.254Z,99.99
2022-09-24T00:14:47.242Z,99.99
2022-09-24T00:15:47.637Z,99.99
2022-09-24T00:16:47.579Z,99.99
2022-09-24T00:17:47.457Z,99.99
2022-09-24T00:18:47.180Z,99.99
2022-09-24T00:19:47.167Z,99.99
2022-09-24T00:20:47.525Z,99.99
2022-09-24T00:21:47.429Z,99.99
2022-09-24T00:22:47.382Z,99.99
2022-09-24T00:23:47.371Z,99.99
2022-09-24T00:24:47.364Z,99.99
2022-09-24T00:25:47.343Z,99.99
2022-09-24T00:26:47.333Z,99.99
2022-09-24T00:27:47.320Z,99.99
2022-09-24T00:28:47.300Z,99.99
2022-09-24T00:29:47.028Z,99.99
2022-09-24T00:30:47.017Z,99.99
2022-09-24T00:31:47.108Z,99.99
2022-09-24T00:32:46.991Z,99.99
2022-09-24T00:33:46.978Z,99.99
2022-09-24T00:34:47.215Z,99.99
2022-09-24T00:35:46.955Z,99.99
2022-09-24T00:36:47.214Z,99.99
2022-09-24T00:37:47.340Z,99.99
2022-09-24T00:38:47.159Z,99.99
2022-09-24T00:39:47.151Z,99.99
2022-09-24T00:40:47.254Z,99.99
2022-09-24T00:41:47.190Z,99.99
2022-09-24T00:42:46.848Z,99.99
2022-09-24T00:43:46.839Z,99.99
2022-09-24T00:44:46.822Z,99.99
2022-09-24T00:45:47.076Z,99.99
2022-09-24T00:46:47.155Z,99.99
2022-09-24T00:47:47.041Z,99.99
2022-09-24T00:48:47.024Z,99.99
2022-09-24T00:49:46.760Z,99.99
2022-09-24T00:50:46.994Z,99.99
2022-09-24T00:51:46.986Z,99.99
2022-09-24T00:52:46.998Z,99.99
2022-09-24T00:53:47.111Z,99.99
2022-09-24T00:54:46.942Z,99.99
2022-09-24T00:55:46.930Z,99.99
2022-09-24T00:56:46.913Z,99.99
2022-09-24T00:57:46.652Z,99.99
2022-09-24T00:58:46.882Z,99.99
2022-09-24T00:59:46.878Z,99.99
2022-09-24T01:00:46.764Z,99.99
2022-09-24T01:01:46.710Z,99.99
2022-09-24T01:02:46.835Z,99.99
2022-09-24T01:03:46.819Z,99.99
2022-09-24T01:04:46.806Z,99.99
2022-09-24T01:05:46.542Z,99.99
2022-09-24T01:06:46.811Z,99.99
2022-09-24T01:07:46.510Z,99.99
2022-09-24T01:08:46.774Z,99.99
2022-09-24T01:09:46.760Z,99.99
2022-09-24T01:10:46.725Z,99.99
2022-09-24T01:11:46.715Z,99.99
2022-09-24T01:12:46.443Z,99.99
2022-09-24T01:13:46.689Z,99.99
2022-09-24T01:14:46.418Z,99.99
2022-09-24T01:15:46.489Z,99.99
2022-09-24T01:16:46.480Z,99.99
2022-09-24T01:17:46.637Z,99.99
2022-09-24T01:18:46.366Z,99.99
2022-09-24T01:19:46.601Z,99.99
2022-09-24T01:20:46.338Z,99.99
2022-09-24T01:21:46.317Z,99.99
2022-09-24T01:22:46.563Z,99.99
2022-09-24T01:23:51.208Z,99.99
2022-09-24T01:24:46.538Z,99.99
2022-09-24T01:25:46.545Z,99.99
2022-09-24T01:26:46.509Z,99.99
2022-09-24T01:27:46.491Z,99.99
2022-09-24T01:28:46.225Z,99.99
2022-09-24T01:29:46.464Z,99.99
2022-09-24T01:30:46.453Z,99.99
2022-09-24T01:31:46.646Z,99.99
2022-09-24T01:32:46.169Z,99.99
2022-09-24T01:33:46.169Z,99.99
2022-09-24T01:34:46.400Z,99.99
2022-09-24T01:35:46.394Z,99.99
2022-09-24T01:36:46.377Z,99.99
2022-09-24T01:37:46.356Z,99.99
2022-09-24T01:38:46.345Z,99.99
2022-09-24T01:39:46.094Z,99.99
2022-09-24T01:40:46.254Z,99.99
2022-09-24T01:41:46.321Z,99.99
2022-09-24T01:42:46.290Z,99.99
2022-09-24T01:43:46.271Z,99.99
2022-09-24T01:44:46.005Z,99.99
2022-09-24T01:45:46.245Z,99.99
2022-09-24T01:46:46.098Z,99.99
2022-09-24T01:47:46.215Z,99.99
2022-09-24T01:48:46.207Z,99.99
2022-09-24T01:49:45.939Z,99.99
2022-09-24T01:50:45.925Z,99.99
2022-09-24T01:51:46.163Z,99.99
2022-09-24T01:52:45.897Z,99.99
2022-09-24T01:53:46.133Z,99.99
2022-09-24T01:54:46.130Z,99.99
2022-09-24T01:55:45.879Z,99.99
2022-09-24T01:56:46.097Z,99.99
2022-09-24T01:57:46.582Z,99.99
2022-09-24T01:58:46.555Z,99.99
2022-09-24T01:59:46.532Z,99.99
2022-09-24T02:00:46.664Z,99.99
2022-09-24T02:01:46.444Z,99.99
2022-09-24T02:02:46.518Z,99.99
2022-09-24T02:03:46.223Z,99.99
2022-09-24T02:04:46.212Z,99.99
2022-09-24T02:05:46.448Z,99.99
2022-09-24T02:06:46.435Z,99.99
2022-09-24T02:07:46.167Z,99.99
2022-09-24T02:08:46.414Z,99.99
2022-09-24T02:09:46.397Z,99.99
2022-09-24T02:10:46.499Z,99.99
2022-09-24T02:11:46.395Z,99.99
2022-09-24T02:12:46.359Z,99.99
2022-09-24T02:13:46.366Z,99.99
2022-09-24T02:14:46.327Z,99.99
2022-09-24T02:15:46.179Z,99.99
2022-09-24T02:16:46.042Z,99.99
2022-09-24T02:17:46.290Z,99.99
2022-09-24T02:18:46.268Z,99.99
2022-09-24T02:19:46.004Z,99.99
2022-09-24T02:20:45.990Z,99.99
2022-09-24T02:21:45.975Z,99.99
2022-09-24T02:22:46.216Z,99.99
2022-09-24T02:23:46.207Z,99.99
2022-09-24T02:24:46.192Z,99.99
2022-09-24T02:25:46.180Z,99.99
2022-09-24T02:26:46.169Z,99.99
2022-09-24T02:27:45.920Z,99.99
2022-09-24T02:28:46.135Z,99.99
2022-09-24T02:29:46.147Z,99.99
2022-09-24T02:30:46.104Z,99.99
2022-09-24T02:31:46.093Z,99.99
2022-09-24T02:32:45.827Z,99.99
2022-09-24T02:33:45.814Z,99.99
2022-09-24T02:34:45.796Z,99.99
2022-09-24T02:35:46.041Z,99.99
2022-09-24T02:36:46.022Z,99.99
2022-09-24T02:37:46.011Z,99.99
2022-09-24T02:38:45.995Z,99.99
2022-09-24T02:39:45.731Z,99.99
2022-09-24T02:40:45.856Z,99.99
2022-09-24T02:41:45.961Z,99.99
2022-09-24T02:42:46.046Z,99.99
2022-09-24T02:43:45.700Z,99.99
2022-09-24T02:44:45.916Z,99.99
2022-09-24T02:45:45.930Z,99.99
2022-09-24T02:46:46.090Z,99.99
2022-09-24T02:47:45.619Z,99.99
2022-09-24T02:48:45.862Z,99.99
2022-09-24T02:49:45.847Z,99.99
2022-09-24T02:50:45.834Z,99.99
2022-09-24T02:51:45.568Z,99.99
2022-09-24T02:52:45.555Z,99.99
2022-09-24T02:53:45.789Z,99.99
2022-09-24T02:54:45.526Z,99.99
2022-09-24T02:55:45.765Z,99.99
2022-09-24T02:56:45.755Z,99.99
2022-09-24T02:57:45.737Z,99.99
2022-09-24T02:58:45.731Z,99.99
2022-09-24T02:59:45.735Z,99.99
2022-09-24T03:00:45.446Z,99.99
2022-09-24T03:01:46.054Z,99.99
2022-09-24T03:02:45.743Z,99.99
2022-09-24T03:03:45.667Z,99.99
2022-09-24T03:04:45.672Z,99.99
2022-09-24T03:05:45.629Z,99.99
2022-09-24T03:06:45.613Z,99.99
2022-09-24T03:07:45.605Z,99.99
2022-09-24T03:08:45.332Z,99.99
2022-09-24T03:09:45.571Z,99.99
2022-09-24T03:10:45.561Z,99.99
2022-09-24T03:11:45.288Z,99.99
2022-09-24T03:12:45.533Z,99.99
2022-09-24T03:13:45.518Z,99.99
2022-09-24T03:14:45.526Z,99.99
2022-09-24T03:15:45.377Z,99.99
2022-09-24T03:16:45.481Z,99.99
2022-09-24T03:17:45.511Z,99.99
2022-09-24T03:18:45.453Z,99.99
2022-09-24T03:19:45.437Z,99.99
2022-09-24T03:20:45.171Z,99.99
2022-09-24T03:21:45.407Z,99.99
2022-09-24T03:22:45.147Z,99.99
2022-09-24T03:23:45.385Z,99.99
2022-09-24T03:24:45.118Z,99.99
2022-09-24T03:25:45.354Z,99.99
2022-09-24T03:26:45.091Z,99.99
2022-09-24T03:27:45.330Z,99.99
2022-09-24T03:28:45.056Z,99.99
2022-09-24T03:29:45.049Z,99.99
2022-09-24T03:30:45.287Z,99.99
2022-09-24T03:31:45.528Z,99.99
2022-09-24T03:32:45.260Z,99.99
2022-09-24T03:50:00.057Z,99.99
2022-09-24T03:50:59.958Z,99.99
2022-09-24T03:51:59.689Z,99.99
2022-09-24T03:52:59.669Z,99.99
2022-09-24T03:53:59.910Z,99.99
2022-09-24T03:54:59.638Z,99.99
2022-09-24T03:55:59.880Z,99.99
2022-09-24T03:56:59.878Z,99.99
2022-09-24T03:57:59.846Z,99.99
2022-09-24T03:58:59.585Z,99.99
2022-09-24T03:59:59.816Z,99.99
2022-09-24T04:00:59.545Z,99.99
2022-09-24T04:01:59.988Z,99.99
2022-09-24T04:02:59.679Z,99.99
2022-09-24T04:03:59.758Z,99.99
2022-09-24T04:04:59.490Z,99.99
2022-09-24T04:05:59.779Z,99.99
2022-09-24T04:06:59.455Z,99.99
2022-09-24T04:07:59.706Z,99.99
2022-09-24T04:08:59.426Z,99.99
2022-09-24T04:09:59.668Z,99.99
2022-09-24T04:10:59.650Z,99.99
2022-09-24T04:11:59.387Z,99.99
2022-09-24T04:12:59.628Z,99.99
2022-09-24T04:13:59.354Z,99.99
2022-09-24T04:14:59.341Z,99.99
2022-09-24T04:15:59.470Z,99.99
2022-09-24T04:16:59.578Z,99.99
2022-09-24T04:17:59.575Z,99.99
2022-09-24T04:18:59.537Z,99.99
2022-09-24T04:19:59.529Z,99.99
2022-09-24T04:20:59.257Z,99.99
2022-09-24T04:21:59.552Z,99.99
2022-09-24T04:22:59.481Z,99.99
2022-09-24T04:23:59.217Z,99.99
2022-09-24T04:24:59.200Z,99.99
2022-09-24T04:25:59.201Z,99.99
2022-09-24T04:26:59.428Z,99.99
2022-09-24T04:27:59.421Z,99.99
2022-09-24T04:28:59.149Z,99.99
2022-09-24T04:29:59.402Z,99.99
2022-09-24T04:30:59.326Z,99.99
2022-09-24T04:31:59.107Z,99.99
2022-09-24T04:32:59.366Z,99.99
2022-09-24T04:33:59.358Z,99.99
2022-09-24T04:35:02.005Z,99.99
2022-09-24T04:35:59.374Z,99.99
2022-09-24T04:36:59.351Z,99.99
2022-09-24T04:37:59.656Z,99.99
2022-09-24T04:38:59.579Z,99.99
2022-09-24T04:39:59.308Z,99.99
2022-09-24T04:40:59.664Z,99.99
2022-09-24T04:41:59.545Z,99.99
2022-09-24T04:42:59.519Z,99.99
2022-09-24T04:43:59.249Z,99.99
2022-09-24T04:44:59.494Z,99.99
2022-09-24T04:45:59.295Z,99.99
2022-09-24T04:46:59.681Z,99.99
2022-09-24T04:47:59.460Z,99.99
2022-09-24T04:48:59.437Z,99.99
2022-09-24T04:49:59.418Z,99.99
2022-09-24T04:50:59.405Z,99.99
2022-09-24T04:51:59.393Z,99.99
2022-09-24T04:52:59.127Z,99.99
2022-09-24T04:53:59.418Z,99.99
2022-09-24T04:54:59.354Z,99.99
2022-09-24T04:55:59.081Z,99.99
2022-09-24T04:56:59.838Z,99.99
2022-09-24T04:57:59.794Z,99.99
2022-09-24T04:59:00.055Z,99.99
2022-09-24T05:00:00.013Z,99.99
2022-09-24T05:01:00.011Z,99.99
2022-09-24T05:02:00.011Z,99.99
2022-09-24T05:03:00.224Z,99.99
2022-09-24T05:03:59.701Z,99.99
2022-09-24T05:04:59.953Z,99.99
2022-09-24T05:05:59.943Z,99.99
2022-09-24T05:06:59.925Z,99.99
2022-09-24T05:07:59.909Z,99.99
2022-09-24T05:08:59.901Z,99.99
2022-09-24T05:10:00.022Z,99.99
2022-09-24T05:10:59.605Z,99.99
2022-09-24T05:11:59.875Z,99.99
2022-09-24T05:12:59.578Z,99.99
2022-09-24T05:13:59.566Z,99.99
2022-09-24T05:14:59.809Z,99.99
2022-09-24T05:15:59.612Z,99.99
2022-09-24T05:16:59.775Z,99.99
2022-09-24T05:17:59.506Z,99.99
2022-09-24T05:18:59.749Z,99.99
2022-09-24T05:19:59.568Z,99.99
2022-09-24T05:20:59.492Z,99.99
2022-09-24T05:21:59.706Z,99.99
2022-09-24T05:22:59.437Z,99.99
2022-09-24T05:23:59.425Z,99.99
2022-09-24T05:24:59.669Z,99.99
2022-09-24T05:25:59.718Z,99.99
2022-09-24T05:26:59.382Z,99.99
2022-09-24T05:27:59.622Z,99.99
2022-09-24T05:28:59.611Z,99.99
2022-09-24T05:29:59.343Z,99.99
2022-09-24T05:30:59.816Z,99.99
2022-09-24T05:31:59.312Z,99.99
2022-09-24T05:32:59.295Z,99.99
2022-09-24T05:33:59.540Z,99.99
2022-09-24T05:34:59.523Z,99.99
2022-09-24T05:35:59.516Z,99.99
2022-09-24T05:36:59.493Z,99.99
2022-09-24T05:37:59.485Z,99.99
2022-09-24T05:38:59.211Z,99.99
2022-09-24T05:39:59.456Z,99.99
2022-09-24T05:40:59.683Z,99.99
2022-09-24T05:41:59.485Z,99.99
2022-09-24T05:42:59.159Z,99.99
2022-09-24T05:43:59.395Z,99.99
2022-09-24T05:44:59.392Z,99.99
2022-09-24T05:45:59.371Z,99.99
2022-09-24T05:46:59.225Z,99.99
2022-09-24T05:47:59.087Z,99.99
2022-09-24T05:48:59.332Z,99.99
2022-09-24T05:49:59.316Z,99.99
2022-09-24T05:50:59.297Z,99.99
2022-09-24T05:51:59.043Z,99.99
2022-09-24T05:52:59.019Z,99.99
2022-09-24T05:53:59.003Z,99.99
2022-09-24T05:54:59.253Z,99.99
2022-09-24T05:55:59.234Z,99.99
2022-09-24T05:56:58.966Z,99.99
2022-09-24T05:57:59.254Z,99.99
2022-09-24T05:58:59.187Z,99.99
2022-09-24T05:59:58.928Z,99.99
2022-09-24T06:00:58.907Z,99.99
2022-09-24T06:01:59.299Z,99.99
2022-09-24T06:02:59.314Z,99.99
2022-09-24T06:03:58.867Z,99.99
2022-09-24T06:04:58.867Z,99.99
2022-09-24T06:05:58.843Z,99.99
2022-09-24T06:06:59.085Z,99.99
2022-09-24T06:07:58.815Z,99.99
2022-09-24T06:08:59.059Z,99.99
2022-09-24T06:09:58.786Z,99.99
2022-09-24T06:10:59.033Z,99.99
2022-09-24T06:11:59.020Z,99.99
2022-09-24T06:12:59.001Z,99.99
2022-09-24T06:13:59.038Z,99.99
2022-09-24T06:14:58.978Z,99.99
2022-09-24T06:15:59.194Z,99.99
2022-09-24T06:16:58.950Z,99.99
2022-09-24T06:17:58.973Z,99.99
2022-09-24T06:18:58.923Z,99.99
2022-09-24T06:19:58.914Z,99.99
2022-09-24T06:20:58.898Z,99.99
2022-09-24T06:21:58.890Z,99.99
2022-09-24T06:22:58.870Z,99.99
2022-09-24T06:23:58.864Z,99.99
2022-09-24T06:24:58.596Z,99.99
2022-09-24T06:25:58.833Z,99.99
2022-09-24T06:26:58.822Z,99.99
2022-09-24T06:27:58.816Z,99.99
2022-09-24T06:29:05.312Z,99.99
2022-09-24T06:29:58.806Z,99.99
2022-09-24T06:30:58.922Z,99.99
2022-09-24T06:31:58.502Z,99.99
2022-09-24T06:32:58.745Z,99.99
2022-09-24T06:33:58.729Z,99.99
2022-09-24T06:35:01.702Z,99.99
2022-09-24T06:35:58.703Z,99.99
2022-09-24T06:36:58.694Z,99.99
2022-09-24T06:37:58.425Z,99.99
2022-09-24T06:38:58.666Z,99.99
2022-09-24T06:39:58.653Z,99.99
2022-09-24T06:40:58.750Z,99.99
2022-09-24T06:41:58.373Z,99.99
2022-09-24T06:42:58.358Z,99.99
2022-09-24T06:43:58.597Z,99.99
2022-09-24T06:44:58.359Z,99.99
2022-09-24T06:45:58.595Z,99.99
2022-09-24T06:46:58.431Z,99.99
2022-09-24T06:47:58.549Z,99.99
2022-09-24T06:48:58.315Z,99.99
2022-09-24T06:49:58.522Z,99.99
2022-09-24T06:50:58.525Z,99.99
2022-09-24T06:51:58.248Z,99.99
2022-09-24T06:52:58.490Z,99.99
2022-09-24T06:53:58.473Z,99.99
2022-09-24T06:54:58.208Z,99.99
2022-09-24T06:55:58.457Z,99.99
2022-09-24T06:56:58.186Z,99.99
2022-09-24T06:57:58.423Z,99.99
2022-09-24T06:58:58.412Z,99.99
2022-09-24T06:59:58.407Z,99.99
2022-09-24T07:00:58.503Z,99.99
2022-09-24T07:01:58.503Z,99.99
2022-09-24T07:02:58.110Z,99.99
2022-09-24T07:03:58.362Z,99.99
2022-09-24T07:04:58.341Z,99.99
2022-09-24T07:05:58.072Z,99.99
2022-09-24T07:06:58.319Z,99.99
2022-09-24T07:07:58.309Z,99.99
2022-09-24T07:08:58.292Z,99.99
2022-09-24T07:09:58.027Z,99.99
2022-09-24T07:10:58.277Z,99.99
2022-09-24T07:11:58.255Z,99.99
2022-09-24T07:12:58.245Z,99.99
2022-09-24T07:13:58.230Z,99.99
2022-09-24T07:14:57.965Z,99.99
2022-09-24T07:15:58.349Z,99.99
2022-09-24T07:16:58.309Z,99.99
2022-09-24T07:17:58.222Z,99.99
2022-09-24T07:18:58.174Z,99.99
2022-09-24T07:19:57.910Z,99.99
2022-09-24T07:20:58.155Z,99.99
2022-09-24T07:21:57.899Z,99.99
2022-09-24T07:22:58.129Z,99.99
2022-09-24T07:24:01.094Z,99.99
2022-09-24T07:24:58.108Z,99.99
2022-09-24T07:25:58.103Z,99.99
2022-09-24T07:26:57.834Z,99.99
2022-09-24T07:27:58.086Z,99.99
2022-09-24T07:28:58.073Z,99.99
2022-09-24T07:29:57.801Z,99.99
2022-09-24T07:30:58.202Z,99.99
2022-09-24T07:31:57.791Z,99.99
2022-09-24T07:32:58.057Z,99.99
2022-09-24T07:33:58.131Z,99.99
2022-09-24T07:34:57.774Z,99.99
2022-09-24T07:35:57.998Z,99.99
2022-09-24T07:36:57.984Z,99.99
2022-09-24T07:37:57.722Z,99.99
2022-09-24T07:38:57.966Z,98.47
2022-09-24T07:39:57.959Z,97.66
2022-09-24T07:40:57.818Z,97.27
2022-09-24T07:41:57.681Z,96.66
2022-09-24T07:42:57.673Z,96.42
2022-09-24T07:43:57.919Z,96.66
2022-09-24T07:44:57.661Z,96.42
2022-09-24T07:45:57.645Z,96.89
2022-09-24T07:46:57.817Z,97.56
2022-09-24T07:47:57.898Z,98.03
2022-09-24T07:48:57.635Z,98.47
2022-09-24T07:49:57.885Z,98.9
2022-09-24T07:50:57.844Z,99.52
2022-09-24T07:51:57.838Z,99.52
2022-09-24T07:52:57.826Z,99.99
2022-09-24T07:53:57.566Z,99.99
2022-09-24T07:54:57.816Z,99.99
2022-09-24T07:55:57.543Z,99.99
2022-09-24T07:56:57.786Z,99.85
2022-09-24T07:57:57.788Z,98.61
2022-09-24T07:58:57.591Z,97.94
2022-09-24T07:59:57.765Z,97.08
2022-09-24T08:00:57.495Z,96.32
2022-09-24T08:01:57.670Z,95.98
2022-09-24T08:02:57.735Z,95.03
2022-09-24T08:03:57.851Z,94.17
2022-09-24T08:04:57.741Z,94.17
2022-09-24T08:05:57.732Z,93.21
2022-09-24T08:06:57.696Z,91.49
2022-09-24T08:07:57.493Z,90.34
2022-09-24T08:08:57.431Z,89.39
2022-09-24T08:09:57.667Z,89.1
2022-09-24T08:10:57.662Z,88.62
2022-09-24T08:11:57.397Z,88.05
2022-09-24T08:12:57.389Z,87.66
2022-09-24T08:13:57.378Z,87.57
2022-09-24T08:14:57.628Z,87.76
2022-09-24T08:15:57.690Z,87.09
2022-09-24T08:16:57.351Z,86.61
2022-09-24T08:17:57.598Z,86.04
2022-09-24T08:18:57.598Z,85.38
2022-09-24T08:19:57.583Z,85.09
2022-09-24T08:20:57.343Z,84.85
2022-09-24T08:21:57.597Z,84.09
2022-09-24T08:22:57.558Z,83.7
2022-09-24T08:23:57.547Z,83.8
2022-09-24T08:24:57.540Z,83.42
2022-09-24T08:25:57.528Z,83.23
2022-09-24T08:26:57.262Z,83.57
2022-09-24T08:27:57.507Z,83.7
2022-09-24T08:28:57.506Z,83.42
2022-09-24T08:29:57.235Z,83.61
2022-09-24T08:30:57.543Z,83.47
2022-09-24T08:31:57.471Z,84.56
2022-09-24T08:32:57.211Z,84.05
2022-09-24T08:33:57.456Z,84.23
2022-09-24T08:34:57.472Z,84.62
2022-09-24T08:35:57.184Z,84.05
2022-09-24T08:36:57.455Z,84.05
2022-09-24T08:37:57.449Z,83.28
2022-09-24T08:38:57.411Z,83.61
2022-09-24T08:39:57.146Z,84.19
2022-09-24T08:40:57.556Z,83.67
2022-09-24T08:41:57.383Z,84.19
2022-09-24T08:42:57.379Z,83.9
2022-09-24T08:43:57.375Z,84.56
2022-09-24T08:44:57.361Z,84.66
2022-09-24T08:45:57.347Z,84.76
2022-09-24T08:46:57.238Z,84.56
2022-09-24T08:47:57.074Z,84.38
2022-09-24T08:48:57.324Z,84.47
2022-09-24T08:49:57.311Z,83.9
2022-09-24T08:50:57.312Z,83.7
2022-09-24T08:51:57.294Z,83.23
2022-09-24T08:52:57.058Z,82.65
2022-09-24T08:53:57.306Z,82.89
2022-09-24T08:54:57.016Z,82.12
2022-09-24T08:55:57.259Z,81.93
2022-09-24T08:56:56.997Z,82.41
2022-09-24T08:57:56.997Z,81.65
2022-09-24T08:58:57.235Z,80.88
2022-09-24T08:59:57.226Z,81.07
2022-09-24T09:00:56.962Z,80.98
2022-09-24T09:01:57.550Z,81.4
2022-09-24T09:02:57.462Z,81.3
2022-09-24T09:03:57.192Z,81.78
2022-09-24T09:04:56.926Z,81.3
2022-09-24T09:05:56.919Z,81.02
2022-09-24T09:06:56.909Z,80.73
2022-09-24T09:07:56.903Z,79.77
2022-09-24T09:09:18.894Z,78.66
2022-09-24T09:09:57.170Z,78.28
2022-09-24T09:10:57.131Z,77.9
2022-09-24T09:11:57.123Z,78.76
2022-09-24T09:12:57.114Z,79.24
2022-09-24T09:13:56.852Z,79.52
2022-09-24T09:14:57.103Z,79.18
2022-09-24T09:15:57.128Z,76.98
2022-09-24T09:16:56.827Z,76.79
2022-09-24T09:17:57.081Z,76.12
2022-09-24T09:18:57.067Z,76.69
2022-09-24T09:19:57.063Z,76.79
2022-09-24T09:20:57.050Z,76.69
2022-09-24T09:21:57.042Z,76.12
2022-09-24T09:22:56.780Z,75.83
2022-09-24T09:23:57.028Z,75.73
2022-09-24T09:25:02.894Z,75.58
2022-09-24T09:25:57.043Z,74.62
2022-09-24T09:26:56.771Z,74.15
2022-09-24T09:27:56.994Z,74.58
2022-09-24T09:28:56.990Z,75.64
2022-09-24T09:29:56.983Z,76.12
2022-09-24T09:30:56.934Z,75.07
2022-09-24T09:31:58.899Z,75.64
2022-09-24T09:32:56.701Z,75.64
2022-09-24T09:33:56.954Z,75.07
2022-09-24T09:34:56.685Z,74.49
2022-09-24T09:35:56.681Z,74.01
2022-09-24T09:36:56.672Z,73.82
2022-09-24T09:37:56.924Z,73.44
2022-09-24T09:38:56.910Z,73.34
2022-09-24T09:39:56.901Z,74.01
2022-09-24T09:40:57.075Z,74.01
2022-09-24T09:41:56.914Z,74.45
2022-09-24T09:42:56.881Z,74.45
2022-09-24T09:43:56.617Z,74.8
2022-09-24T09:44:56.609Z,76.9
2022-09-24T09:45:56.860Z,77.76
2022-09-24T09:46:56.806Z,77.99
2022-09-24T09:47:56.598Z,80.19
2022-09-24T09:48:56.835Z,78.99
2022-09-24T09:49:56.829Z,78.61
2022-09-24T09:50:56.564Z,77.94
2022-09-24T09:51:56.809Z,76.79
2022-09-24T09:52:56.806Z,76.02
2022-09-24T09:53:56.553Z,76.12
2022-09-24T09:54:56.790Z,75.64
2022-09-24T09:55:56.783Z,75.51
2022-09-24T09:56:56.806Z,75.31
2022-09-24T09:57:56.874Z,75.22
2022-09-24T09:58:56.771Z,75.6
2022-09-24T09:59:56.754Z,76.14
2022-09-24T10:00:56.497Z,76.81
2022-09-24T10:01:56.897Z,76.71
2022-09-24T10:02:56.653Z,77
2022-09-24T10:03:56.717Z,77
2022-09-24T10:04:56.460Z,76.81
2022-09-24T10:05:56.452Z,76.71
2022-09-24T10:06:56.698Z,77.86
2022-09-24T10:07:56.693Z,78.05
2022-09-24T10:08:56.430Z,77.67
2022-09-24T10:09:56.424Z,78.72
2022-09-24T10:10:56.670Z,79.1
2022-09-24T10:11:56.661Z,78.95
2022-09-24T10:12:56.679Z,78.28
2022-09-24T10:13:56.674Z,77.26
2022-09-24T10:14:56.646Z,76.6
2022-09-24T10:15:56.738Z,75.1
2022-09-24T10:16:56.383Z,73.86
2022-09-24T10:17:56.726Z,73.7
2022-09-24T10:18:56.674Z,73.41
2022-09-24T10:19:56.594Z,73.51
2022-09-24T10:20:56.341Z,73.45
2022-09-24T10:21:56.580Z,72.78
2022-09-24T10:22:56.321Z,71.76
2022-09-24T10:23:56.597Z,70.9
2022-09-24T10:24:56.560Z,70.13
2022-09-24T10:25:56.294Z,69.93
2022-09-24T10:26:56.551Z,69.59
2022-09-24T10:27:56.542Z,68.63
2022-09-24T10:28:56.388Z,68.63
2022-09-24T10:29:56.636Z,68.82
2022-09-24T10:30:56.738Z,68.4
2022-09-24T10:31:56.518Z,69.07
2022-09-24T10:32:56.253Z,68.88
2022-09-24T10:33:56.244Z,67.73
2022-09-24T10:34:56.517Z,67.19
2022-09-24T10:35:56.236Z,66.39
2022-09-24T10:36:56.480Z,66.39
2022-09-24T10:37:56.474Z,66.96
2022-09-24T10:38:56.467Z,67.16
2022-09-24T10:39:56.461Z,66.29
2022-09-24T10:40:56.326Z,66.39
2022-09-24T10:41:56.448Z,67.06
2022-09-24T10:42:56.446Z,67.12
2022-09-24T10:43:56.451Z,67.6
2022-09-24T10:44:56.225Z,68.18
2022-09-24T10:45:56.448Z,68.05
2022-09-24T10:46:56.269Z,68.14
2022-09-24T10:47:56.410Z,68.81
2022-09-24T10:48:56.404Z,68.91
2022-09-24T10:49:56.139Z,69.77
2022-09-24T10:50:56.387Z,68.72
2022-09-24T10:51:56.382Z,68.43
2022-09-24T10:52:56.376Z,68.81
2022-09-24T10:53:56.137Z,69.39
2022-09-24T10:54:56.119Z,69.01
2022-09-24T10:55:56.358Z,68.66
2022-09-24T10:56:56.094Z,68.08
2022-09-24T10:57:56.088Z,68.12
2022-09-24T10:58:56.081Z,67.92
2022-09-24T10:59:56.077Z,66.1
2022-09-24T11:00:56.434Z,66
2022-09-24T11:01:56.561Z,65.62
2022-09-24T11:02:56.495Z,64.66
2022-09-24T11:03:56.309Z,64.76
2022-09-24T11:04:56.298Z,64.66
2022-09-24T11:05:56.298Z,64.56
2022-09-24T11:06:56.286Z,63.79
2022-09-24T11:07:56.028Z,63.6
2022-09-24T11:08:56.277Z,65.14
2022-09-24T11:09:56.014Z,66.58
2022-09-24T11:10:56.266Z,66.16
2022-09-24T11:11:56.005Z,66.93
2022-09-24T11:12:56.251Z,66.89
2022-09-24T11:13:55.989Z,67.57
2022-09-24T11:14:56.237Z,67.18
2022-09-24T11:15:56.299Z,67.34
2022-09-24T11:16:56.277Z,68.14
2022-09-24T11:17:56.247Z,68.14
2022-09-24T11:18:56.214Z,68.43
2022-09-24T11:19:56.212Z,67.38
2022-09-24T11:20:55.951Z,66.16
2022-09-24T11:21:56.202Z,65.88
2022-09-24T11:22:55.931Z,65.49
2022-09-24T11:23:56.185Z,66.45
2022-09-24T11:24:55.925Z,64.92
2022-09-24T11:25:56.168Z,64.43
2022-09-24T11:26:56.159Z,64.05
2022-09-24T11:27:55.909Z,64.43
2022-09-24T11:28:56.149Z,64.34
2022-09-24T11:29:55.890Z,63.67
2022-09-24T11:30:55.987Z,63.76
2022-09-24T11:31:56.133Z,61.94
2022-09-24T11:32:56.242Z,61.75
2022-09-24T11:33:56.146Z,62.04
2022-09-24T11:34:56.112Z,62.62
2022-09-24T11:35:55.849Z,63.09
2022-09-24T11:36:55.858Z,64.25
2022-09-24T11:37:56.091Z,64.15
2022-09-24T11:38:56.089Z,64.09
2022-09-24T11:39:56.079Z,63.03
2022-09-24T11:40:56.242Z,63.22
2022-09-24T11:41:55.815Z,62.55
2022-09-24T11:42:55.918Z,62.16
2022-09-24T11:43:56.056Z,62.45
2022-09-24T11:44:56.053Z,61.91
2022-09-24T11:45:55.787Z,62.68
2022-09-24T11:46:55.965Z,62.39
2022-09-24T11:47:56.032Z,62.87
2022-09-24T11:48:56.057Z,62.48
2022-09-24T11:49:56.127Z,61.84
2022-09-24T11:50:56.017Z,61.36
2022-09-24T11:51:55.760Z,60.95
2022-09-24T11:52:56.005Z,61.33
2022-09-24T11:53:56.016Z,61.24
2022-09-24T11:54:55.742Z,61.14
2022-09-24T11:55:55.997Z,60.57
2022-09-24T11:56:55.727Z,59.8
2022-09-24T11:57:55.726Z,59.12
2022-09-24T11:58:55.976Z,60.08
2022-09-24T11:59:55.966Z,61.91
2022-09-24T12:00:56.073Z,62.29
2022-09-24T12:01:56.058Z,62.84
2022-09-24T12:02:55.886Z,63.6
2022-09-24T12:03:55.943Z,63.42
2022-09-24T12:04:55.790Z,63.32
2022-09-24T12:05:56.023Z,63.42
2022-09-24T12:06:55.670Z,64.18
2022-09-24T12:07:55.928Z,64.56
2022-09-24T12:08:55.916Z,64.85
2022-09-24T12:09:55.650Z,64.47
2022-09-24T12:10:55.650Z,64.76
2022-09-24T12:11:55.648Z,64.4
2022-09-24T12:12:55.636Z,64.31
2022-09-24T12:13:55.631Z,64.31
2022-09-24T12:14:55.880Z,64.4
2022-09-24T12:15:55.943Z,63.35
2022-09-24T12:16:55.883Z,62.77
2022-09-24T12:17:55.860Z,61.91
2022-09-24T12:18:55.602Z,61.62
2022-09-24T12:19:55.848Z,61.72
2022-09-24T12:20:55.957Z,61.69
2022-09-24T12:21:55.866Z,61.78
2022-09-24T12:22:55.834Z,62.84
2022-09-24T12:24:04.805Z,63.86
2022-09-24T12:24:55.581Z,64.05
2022-09-24T12:25:55.822Z,63.67
2022-09-24T12:26:55.557Z,62.93
2022-09-24T12:27:55.553Z,63.32
2022-09-24T12:28:55.795Z,63.89
2022-09-24T12:29:55.539Z,63.7
2022-09-24T12:30:55.892Z,64.22
2022-09-24T12:31:55.665Z,63.35
2022-09-24T12:32:55.776Z,62.58
2022-09-24T12:33:55.773Z,61.08
2022-09-24T12:34:55.509Z,62.13
2022-09-24T12:35:55.502Z,61.94
2022-09-24T12:36:59.286Z,61.46
2022-09-24T12:37:55.855Z,61.55
2022-09-24T12:38:55.746Z,60.78
2022-09-24T12:39:55.479Z,58.39
2022-09-24T12:40:55.597Z,57.14
2022-09-24T12:41:55.728Z,57.33
2022-09-24T12:42:55.464Z,57.9
2022-09-24T12:43:55.469Z,57.81
2022-09-24T12:44:55.704Z,56.76
2022-09-24T12:45:55.449Z,56.56
2022-09-24T12:46:55.887Z,56.85
2022-09-24T12:47:55.694Z,58.1
2022-09-24T12:48:55.682Z,58.07
2022-09-24T12:49:55.437Z,58.26
2022-09-24T12:50:55.678Z,58.45
2022-09-24T12:51:55.418Z,58.74
2022-09-24T12:52:55.776Z,59.67
2022-09-24T12:53:55.691Z,59.58
2022-09-24T12:54:55.652Z,59.67
2022-09-24T12:55:55.649Z,59.38
2022-09-24T12:56:55.643Z,59.86
2022-09-24T12:57:55.382Z,60.63
2022-09-24T12:58:55.381Z,60.44
2022-09-24T12:59:55.629Z,60.53
2022-09-24T13:00:55.627Z,61.02
2022-09-24T13:01:55.909Z,60.53
2022-09-24T13:02:55.945Z,60.72
2022-09-24T13:03:55.350Z,60.63
2022-09-24T13:04:55.343Z,60.72
2022-09-24T13:05:55.337Z,60.53
2022-09-24T13:06:55.612Z,60.05
2022-09-24T13:07:55.583Z,58.81
2022-09-24T13:08:55.679Z,58.42
2022-09-24T13:09:55.676Z,58.91